createdAt,value
2023-03-28T00:01:45.744Z,101777.00
2023-03-28T00:04:15.333Z,101782.81
2023-03-28T00:06:46.455Z,101788.38
2023-03-28T00:09:16.963Z,101794.91
2023-03-28T00:11:49.313Z,101798.53
2023-03-28T00:14:18.800Z,101805.09
2023-03-28T00:16:48.394Z,101803.19
2023-03-28T00:19:20.887Z,101810.47
2023-03-28T00:21:52.350Z,101818.19
2023-03-28T00:24:23.944Z,101821.75
2023-03-28T00:27:00.633Z,101830.69
2023-03-28T00:29:30.323Z,101830.53
2023-03-28T00:31:59.865Z,101837.84
2023-03-28T00:34:29.349Z,101837.16
2023-03-28T00:36:58.912Z,101841.72
2023-03-28T00:39:29.558Z,101839.25
2023-03-28T00:42:02.924Z,101848.63
2023-03-28T00:44:47.581Z,101840.38
2023-03-28T00:47:36.896Z,101847.31
2023-03-28T00:50:11.057Z,101847.97
2023-03-28T00:52:43.297Z,101850.13
2023-03-28T00:55:16.563Z,101863.03
2023-03-28T00:57:50.441Z,101863.22
2023-03-28T01:00:21.213Z,101869.78
2023-03-28T01:02:53.271Z,101872.22
2023-03-28T01:05:27.321Z,101879.25
2023-03-28T01:07:59.888Z,101884.16
2023-03-28T01:10:29.600Z,101881.94
2023-03-28T01:13:02.173Z,101882.81
2023-03-28T01:15:33.643Z,101897.34
2023-03-28T01:18:10.778Z,101896.75
2023-03-28T01:21:18.418Z,101889.22
2023-03-28T01:24:13.772Z,101895.72
2023-03-28T01:27:01.322Z,101898.72
2023-03-28T01:30:02.734Z,101902.81
2023-03-28T01:33:07.736Z,101910.03
2023-03-28T01:36:03.231Z,101917.94
2023-03-28T01:38:39.639Z,101924.09
2023-03-28T01:41:17.436Z,101924.16
2023-03-28T01:43:51.801Z,101923.22
2023-03-28T01:46:25.117Z,101932.81
2023-03-28T01:49:00.963Z,101933.97
2023-03-28T01:51:39.012Z,101930.44
2023-03-28T01:54:16.254Z,101921.84
2023-03-28T01:56:50.938Z,101925.13
2023-03-28T01:59:23.631Z,101926.88
2023-03-28T02:01:56.320Z,101921.75
2023-03-28T02:04:29.325Z,101926.72
2023-03-28T02:06:59.913Z,101920.47
2023-03-28T02:09:34.352Z,101915.34
2023-03-28T02:12:07.712Z,101924.69
2023-03-28T02:14:41.399Z,101926.56
2023-03-28T02:17:15.676Z,101933.00
2023-03-28T02:19:49.099Z,101929.97
2023-03-28T02:22:23.169Z,101924.59
2023-03-28T02:24:56.505Z,101928.66
2023-03-28T02:27:26.082Z,101929.97
2023-03-28T02:29:56.156Z,101928.41
2023-03-28T02:32:25.939Z,101928.84
2023-03-28T02:34:56.361Z,101928.03
2023-03-28T02:37:34.094Z,101934.00
2023-03-28T02:40:21.781Z,101925.75
2023-03-28T02:43:18.421Z,101928.34
2023-03-28T02:46:18.419Z,101928.50
2023-03-28T02:49:08.811Z,101938.09
2023-03-28T02:51:46.515Z,101937.69
2023-03-28T02:54:26.377Z,101930.25
2023-03-28T02:57:06.452Z,101949.41
2023-03-28T02:59:38.688Z,101943.66
2023-03-28T03:02:08.484Z,101944.53
2023-03-28T03:04:38.213Z,101952.09
2023-03-28T03:07:09.147Z,101951.63
2023-03-28T03:09:38.704Z,101946.72
2023-03-28T03:12:11.238Z,101956.69
2023-03-28T03:14:40.837Z,101951.81
2023-03-28T03:17:11.007Z,101951.16
2023-03-28T03:19:43.267Z,101956.66
2023-03-28T03:22:21.079Z,101955.50
2023-03-28T03:24:51.257Z,101952.06
2023-03-28T03:27:23.766Z,101959.66
2023-03-28T03:29:53.371Z,101965.50
2023-03-28T03:32:22.905Z,101965.59
2023-03-28T03:34:52.407Z,101963.59
2023-03-28T03:37:22.917Z,101972.88
2023-03-28T03:39:52.402Z,101979.88
2023-03-28T03:42:29.127Z,101978.97
2023-03-28T03:44:58.628Z,101984.72
2023-03-28T03:47:28.132Z,101981.88
2023-03-28T03:49:57.606Z,101987.66
2023-03-28T03:52:27.335Z,101983.84
2023-03-28T03:54:56.817Z,101986.09
2023-03-28T03:57:28.861Z,101976.56
2023-03-28T04:00:00.063Z,101987.78
2023-03-28T04:02:29.636Z,101981.22
2023-03-28T04:04:59.964Z,101981.31
2023-03-28T04:07:29.431Z,101970.56
2023-03-28T04:09:59.635Z,101973.81
2023-03-28T04:12:31.789Z,101977.97
2023-03-28T04:15:01.264Z,101979.53
2023-03-28T04:17:34.933Z,101980.50
2023-03-28T04:20:13.848Z,101979.91
2023-03-28T04:22:45.121Z,101987.44
2023-03-28T04:25:17.919Z,101994.94
2023-03-28T04:27:50.462Z,101992.19
2023-03-28T04:30:20.479Z,101996.53
2023-03-28T04:32:54.520Z,101999.16
2023-03-28T04:35:24.323Z,102005.19
2023-03-28T04:37:57.957Z,102009.00
2023-03-28T04:40:28.311Z,102009.19
2023-03-28T04:43:00.411Z,102003.66
2023-03-28T04:45:30.013Z,102013.16
2023-03-28T04:47:59.675Z,102017.66
2023-03-28T04:50:29.192Z,102009.59
2023-03-28T04:52:58.665Z,102006.00
2023-03-28T04:55:28.576Z,102022.25
2023-03-28T04:58:01.077Z,102019.56
2023-03-28T05:00:30.706Z,102031.66
2023-03-28T05:03:01.020Z,102025.75
2023-03-28T05:05:31.073Z,102030.63
2023-03-28T05:08:00.874Z,102040.94
2023-03-28T05:10:30.474Z,102044.59
2023-03-28T05:13:02.655Z,102043.88
2023-03-28T05:15:32.345Z,102041.16
2023-03-28T05:18:02.110Z,102045.34
2023-03-28T05:20:31.767Z,102048.78
2023-03-28T05:23:02.276Z,102052.31
2023-03-28T05:25:31.883Z,102049.34
2023-03-28T05:28:04.604Z,102055.75
2023-03-28T05:30:34.329Z,102050.13
2023-03-28T05:33:04.153Z,102057.19
2023-03-28T05:35:33.803Z,102057.75
2023-03-28T05:38:03.528Z,102053.09
2023-03-28T05:40:33.051Z,102066.56
2023-03-28T05:43:05.184Z,102081.38
2023-03-28T05:45:34.789Z,102089.09
2023-03-28T05:48:04.365Z,102071.28
2023-03-28T05:50:33.933Z,102082.66
2023-03-28T05:53:03.777Z,102089.66
2023-03-28T05:55:35.375Z,102084.22
2023-03-28T05:58:08.048Z,102086.25
2023-03-28T06:00:37.537Z,102082.78
2023-03-28T06:03:08.123Z,102077.84
2023-03-28T06:05:38.196Z,102081.00
2023-03-28T06:08:09.521Z,102071.06
2023-03-28T06:10:39.291Z,102071.88
2023-03-28T06:13:11.766Z,102056.78
2023-03-28T06:15:41.558Z,102070.19
2023-03-28T06:18:11.294Z,102066.00
2023-03-28T06:20:40.908Z,102063.75
2023-03-28T06:23:10.497Z,102060.25
2023-03-28T06:25:40.047Z,102061.97
2023-03-28T06:28:12.186Z,102061.25
2023-03-28T06:30:42.884Z,102058.56
2023-03-28T06:33:12.388Z,102063.63
2023-03-28T06:35:41.980Z,102060.69
2023-03-28T06:38:11.559Z,102064.53
2023-03-28T06:40:41.373Z,102064.94
2023-03-28T06:43:13.779Z,102069.53
2023-03-28T06:45:43.574Z,102076.56
2023-03-28T06:48:13.341Z,102074.59
2023-03-28T06:50:43.336Z,102080.03
2023-03-28T06:53:13.169Z,102087.13
2023-03-28T06:55:42.796Z,102088.47
2023-03-28T06:58:15.055Z,102089.41
2023-03-28T07:00:44.701Z,102087.81
2023-03-28T07:03:14.596Z,102093.22
2023-03-28T07:05:45.331Z,102099.34
2023-03-28T07:08:15.938Z,102109.75
2023-03-28T07:10:45.687Z,102116.41
2023-03-28T07:13:17.826Z,102127.78
2023-03-28T07:15:47.284Z,102129.03
2023-03-28T07:18:17.032Z,102136.00
2023-03-28T07:20:51.979Z,102147.22
2023-03-28T07:23:31.132Z,102144.28
2023-03-28T07:26:00.824Z,102152.72
2023-03-28T07:28:33.129Z,102171.34
2023-03-28T07:31:04.771Z,102175.75
2023-03-28T07:33:37.428Z,102179.38
2023-03-28T07:36:13.014Z,102192.72
2023-03-28T07:38:42.877Z,102203.81
2023-03-28T07:41:13.075Z,102213.25
2023-03-28T07:43:47.502Z,102217.78
2023-03-28T07:46:18.241Z,102224.56
2023-03-28T07:48:47.900Z,102216.03
2023-03-28T07:51:18.625Z,102219.34
2023-03-28T07:53:48.240Z,102214.59
2023-03-28T07:56:17.958Z,102221.31
2023-03-28T07:58:50.109Z,102215.81
2023-03-28T08:01:22.909Z,102217.34
2023-03-28T08:03:53.125Z,102222.72
2023-03-28T08:06:32.155Z,102214.00
2023-03-28T08:09:02.376Z,102227.34
2023-03-28T08:11:31.902Z,102216.72
2023-03-28T08:14:04.340Z,102203.53
2023-03-28T08:16:34.500Z,102187.88
2023-03-28T08:21:39.434Z,102136.34
2023-03-28T08:24:17.351Z,102089.56
2023-03-28T08:26:52.293Z,102047.03
2023-03-28T08:29:24.412Z,102007.50
2023-03-28T08:31:54.157Z,101978.06
2023-03-28T08:34:23.703Z,101890.00
2023-03-28T08:36:53.526Z,101730.31
2023-03-28T08:39:23.518Z,101614.63
2023-03-28T08:42:11.187Z,101580.16
2023-03-28T08:44:59.344Z,101560.78
2023-03-28T08:47:31.602Z,101546.34
2023-03-28T08:50:04.453Z,101552.34
2023-03-28T08:52:34.932Z,101563.19
2023-03-28T08:55:07.208Z,101565.31
2023-03-28T08:57:38.029Z,101569.38
2023-03-28T09:00:17.360Z,101589.31
2023-03-28T09:02:47.241Z,101594.00
2023-03-28T09:05:23.520Z,101564.56
2023-03-28T09:07:57.171Z,101597.31
2023-03-28T09:10:30.814Z,101621.88
2023-03-28T09:13:10.453Z,101618.13
2023-03-28T09:16:03.246Z,101612.72
2023-03-28T09:18:55.842Z,101617.22
2023-03-28T09:21:31.255Z,101622.44
2023-03-28T09:24:13.163Z,101612.00
2023-03-28T09:26:45.280Z,101624.97
2023-03-28T09:29:17.906Z,101636.16
2023-03-28T09:31:52.802Z,101626.59
2023-03-28T09:34:27.469Z,101625.41
2023-03-28T09:37:01.150Z,101611.44
2023-03-28T09:39:36.947Z,101578.28
2023-03-28T09:42:09.457Z,101564.53
2023-03-28T09:44:54.362Z,101571.22
2023-03-28T09:47:27.570Z,101612.56
2023-03-28T09:50:09.576Z,101640.03
2023-03-28T09:52:42.184Z,101665.84
2023-03-28T09:55:18.714Z,101693.41
2023-03-28T09:58:09.692Z,101686.34
2023-03-28T10:00:40.780Z,101641.34
2023-03-28T10:03:23.297Z,101630.66
2023-03-28T10:05:54.078Z,101630.75
2023-03-28T10:08:29.863Z,101642.09
2023-03-28T10:11:03.290Z,101616.03
2023-03-28T10:13:40.524Z,101603.75
2023-03-28T10:16:12.537Z,101591.47
2023-03-28T10:18:45.639Z,101590.84
2023-03-28T10:21:17.911Z,101591.25
2023-03-28T10:23:51.465Z,101574.78
2023-03-28T10:26:24.602Z,101584.81
2023-03-28T10:28:57.627Z,101590.56
2023-03-28T10:31:29.775Z,101579.38
2023-03-28T10:34:03.198Z,101582.34
2023-03-28T10:36:34.849Z,101579.25
2023-03-28T10:39:24.006Z,101579.13
2023-03-28T10:41:57.560Z,101586.09
2023-03-28T10:44:31.758Z,101586.13
2023-03-28T10:47:04.872Z,101589.78
2023-03-28T10:49:44.184Z,101594.06
2023-03-28T10:52:19.684Z,101593.22
2023-03-28T10:54:57.308Z,101602.13
2023-03-28T10:57:29.946Z,101612.25
2023-03-28T11:00:04.162Z,101626.00
2023-03-28T11:03:16.282Z,101653.34
2023-03-28T11:06:08.058Z,101657.38
2023-03-28T11:08:46.039Z,101653.91
2023-03-28T11:11:30.094Z,101655.13
2023-03-28T11:14:04.409Z,101680.31
2023-03-28T11:16:42.511Z,101696.06
2023-03-28T11:19:17.898Z,101730.88
2023-03-28T11:21:55.149Z,101756.72
2023-03-28T11:24:30.815Z,101762.94
2023-03-28T11:27:15.386Z,101755.81
2023-03-28T11:29:49.417Z,101759.69
2023-03-28T11:32:21.768Z,101774.81
2023-03-28T11:35:04.607Z,101775.25
2023-03-28T11:37:39.888Z,101746.00
2023-03-28T11:40:18.526Z,101757.38
2023-03-28T11:42:52.071Z,101774.22
2023-03-28T11:45:46.734Z,101744.44
2023-03-28T11:48:22.264Z,101747.25
2023-03-28T11:50:59.472Z,101729.84
2023-03-28T11:53:34.711Z,101741.88
2023-03-28T11:56:09.550Z,101730.38
2023-03-28T11:58:43.087Z,101741.66
2023-03-28T12:01:15.828Z,101710.28
2023-03-28T12:03:56.371Z,101725.81
2023-03-28T12:06:29.856Z,101726.53
2023-03-28T12:09:05.172Z,101722.50
2023-03-28T12:11:37.510Z,101693.03
2023-03-28T12:14:12.821Z,101702.66
2023-03-28T12:16:45.436Z,101693.91
2023-03-28T12:19:18.651Z,101688.00
2023-03-28T12:21:54.383Z,101668.88
2023-03-28T12:24:35.480Z,101635.88
2023-03-28T12:27:09.464Z,101633.63
2023-03-28T12:29:44.296Z,101624.91
2023-03-28T12:32:27.533Z,101637.56
2023-03-28T12:35:19.862Z,101609.25
2023-03-28T12:38:00.996Z,101576.97
2023-03-28T12:40:45.869Z,101565.38
2023-03-28T12:43:16.309Z,101560.44
2023-03-28T12:45:49.087Z,101559.22
2023-03-28T12:48:21.044Z,101556.66
2023-03-28T12:50:54.350Z,101563.50
2023-03-28T12:53:24.365Z,101559.00
2023-03-28T12:55:56.739Z,101564.22
2023-03-28T12:58:29.553Z,101562.94
2023-03-28T13:01:04.986Z,101566.28
2023-03-28T13:03:40.064Z,101561.75
2023-03-28T13:06:17.658Z,101566.22
2023-03-28T13:08:57.606Z,101562.09
2023-03-28T13:11:36.455Z,101562.19
2023-03-28T13:14:08.913Z,101567.78
2023-03-28T13:16:48.901Z,101564.03
2023-03-28T13:19:20.410Z,101558.81
2023-03-28T13:21:54.136Z,101554.00
2023-03-28T13:24:34.739Z,101558.75
2023-03-28T13:27:09.657Z,101561.16
2023-03-28T13:29:49.830Z,101545.03
2023-03-28T13:32:21.041Z,101535.34
2023-03-28T13:34:51.742Z,101535.94
2023-03-28T13:37:23.816Z,101533.22
2023-03-28T13:39:54.976Z,101529.09
2023-03-28T13:42:36.007Z,101540.91
2023-03-28T13:45:08.027Z,101539.38
2023-03-28T13:47:39.494Z,101536.97
2023-03-28T13:50:19.620Z,101540.47
2023-03-28T13:52:49.161Z,101527.31
2023-03-28T13:55:23.551Z,101526.78
2023-03-28T13:57:56.236Z,101523.31
2023-03-28T14:00:29.026Z,101532.03
2023-03-28T14:03:05.551Z,101534.63
2023-03-28T14:05:36.106Z,101523.31
2023-03-28T14:08:23.946Z,101527.72
2023-03-28T14:10:55.580Z,101536.19
2023-03-28T14:13:30.529Z,101532.31
2023-03-28T14:16:00.320Z,101518.34
2023-03-28T14:18:33.941Z,101521.41
2023-03-28T14:21:06.722Z,101540.34
2023-03-28T14:23:39.063Z,101578.22
2023-03-28T14:26:13.951Z,101600.75
2023-03-28T14:28:47.513Z,101615.88
2023-03-28T14:31:18.782Z,101587.69
2023-03-28T14:33:49.672Z,101631.13
2023-03-28T14:36:19.501Z,101600.03
2023-03-28T14:38:49.241Z,101646.22
2023-03-28T14:41:21.694Z,101646.13
2023-03-28T14:43:57.519Z,101693.59
2023-03-28T14:46:29.495Z,101712.19
2023-03-28T14:49:01.557Z,101692.50
2023-03-28T14:51:31.073Z,101705.03
2023-03-28T14:54:00.560Z,101698.78
2023-03-28T14:56:30.864Z,101701.34
2023-03-28T14:59:05.634Z,101686.31
2023-03-28T15:01:37.919Z,101683.25
2023-03-28T15:04:09.366Z,101664.56
2023-03-28T15:06:39.554Z,101689.69
2023-03-28T15:09:13.905Z,101711.63
2023-03-28T15:11:46.328Z,101692.94
2023-03-28T15:14:20.428Z,101666.31
2023-03-28T15:16:50.295Z,101681.78
2023-03-28T15:19:23.316Z,101703.31
2023-03-28T15:21:57.558Z,101714.97
2023-03-28T15:24:29.187Z,101711.81
2023-03-28T15:27:01.770Z,101707.28
2023-03-28T15:29:39.600Z,101696.47
2023-03-28T15:32:10.779Z,101670.94
2023-03-28T15:34:49.142Z,101644.53
2023-03-28T15:37:22.700Z,101619.41
2023-03-28T15:39:53.201Z,101607.38
2023-03-28T15:42:38.232Z,101604.84
2023-03-28T15:45:38.590Z,101600.06
2023-03-28T15:48:08.792Z,101603.38
2023-03-28T15:50:39.379Z,101606.41
2023-03-28T15:53:10.602Z,101581.16
2023-03-28T15:55:40.159Z,101561.94
2023-03-28T15:58:09.984Z,101591.81
2023-03-28T16:00:45.841Z,101587.66
2023-03-28T16:03:34.220Z,101598.94
2023-03-28T16:06:31.698Z,101587.81
2023-03-28T16:09:17.118Z,101580.22
2023-03-28T16:11:47.303Z,101596.25
2023-03-28T16:14:20.548Z,101573.50
2023-03-28T16:16:56.598Z,101579.50
2023-03-28T16:19:28.391Z,101620.50
2023-03-28T16:22:00.539Z,101654.81
2023-03-28T16:24:31.513Z,101663.38
2023-03-28T16:27:01.478Z,101667.84
2023-03-28T16:29:31.072Z,101665.84
2023-03-28T16:32:03.389Z,101675.53
2023-03-28T16:34:33.009Z,101685.34
2023-03-28T16:37:02.499Z,101682.31
2023-03-28T16:39:32.447Z,101686.56
2023-03-28T16:42:01.978Z,101689.44
2023-03-28T16:44:32.492Z,101697.91
2023-03-28T16:47:05.795Z,101691.09
2023-03-28T16:49:35.388Z,101687.94
2023-03-28T16:52:05.348Z,101687.59
2023-03-28T16:54:34.855Z,101696.50
2023-03-28T16:57:07.124Z,101691.78
2023-03-28T16:59:38.868Z,101699.84
2023-03-28T17:02:12.827Z,101697.69
2023-03-28T17:04:42.296Z,101689.78
2023-03-28T17:07:11.792Z,101690.78
2023-03-28T17:09:42.860Z,101681.53
2023-03-28T17:12:12.442Z,101688.22
2023-03-28T17:14:42.493Z,101685.78
2023-03-28T17:17:17.708Z,101689.19
2023-03-28T17:19:47.173Z,101688.19
2023-03-28T17:22:16.840Z,101689.72
2023-03-28T17:24:46.987Z,101696.59
2023-03-28T17:27:17.067Z,101692.91
2023-03-28T17:29:46.586Z,101694.03
2023-03-28T17:32:18.808Z,101696.63
2023-03-28T17:34:48.516Z,101690.94
2023-03-28T17:37:18.093Z,101684.16
2023-03-28T17:39:47.690Z,101687.34
2023-03-28T17:42:17.490Z,101675.13
2023-03-28T17:44:47.278Z,101679.31
2023-03-28T17:47:19.384Z,101680.75
2023-03-28T17:49:49.292Z,101683.09
2023-03-28T17:52:19.333Z,101668.00
2023-03-28T17:54:51.354Z,101673.44
2023-03-28T17:57:21.624Z,101673.19
2023-03-28T17:59:51.234Z,101669.03
2023-03-28T18:02:23.453Z,101672.22
2023-03-28T18:04:53.758Z,101672.63
2023-03-28T18:07:23.283Z,101669.47
2023-03-28T18:09:52.848Z,101672.78
2023-03-28T18:12:22.627Z,101653.34
2023-03-28T18:14:52.096Z,101651.31
2023-03-28T18:17:24.298Z,101648.28
2023-03-28T18:19:53.837Z,101640.38
2023-03-28T18:22:23.484Z,101627.47
2023-03-28T18:24:56.182Z,101635.50
2023-03-28T18:27:25.641Z,101628.75
2023-03-28T18:29:55.154Z,101621.72
2023-03-28T18:32:27.645Z,101616.63
2023-03-28T18:34:57.134Z,101611.00
2023-03-28T18:37:27.170Z,101601.44
2023-03-28T18:39:57.558Z,101595.19
2023-03-28T18:42:27.882Z,101580.75
2023-03-28T18:44:59.658Z,101580.34
2023-03-28T18:47:32.246Z,101582.13
2023-03-28T18:50:01.719Z,101581.75
2023-03-28T18:52:31.262Z,101582.28
2023-03-28T18:55:01.308Z,101574.75
2023-03-28T18:57:30.782Z,101567.84
2023-03-28T19:00:07.879Z,101571.56
2023-03-28T19:02:40.141Z,101566.06
2023-03-28T19:05:11.046Z,101560.47
2023-03-28T19:07:41.017Z,101561.00
2023-03-28T19:10:13.036Z,101555.75
2023-03-28T19:12:43.038Z,101552.53
2023-03-28T19:15:14.943Z,101547.97
2023-03-28T19:17:47.808Z,101531.88
2023-03-28T19:20:17.490Z,101530.59
2023-03-28T19:22:47.054Z,101529.31
2023-03-28T19:25:16.785Z,101516.75
2023-03-28T19:27:48.505Z,101522.44
2023-03-28T19:30:18.327Z,101521.78
2023-03-28T19:32:50.896Z,101512.06
2023-03-28T19:35:20.560Z,101520.66
2023-03-28T19:37:50.039Z,101515.94
2023-03-28T19:40:19.681Z,101515.28
2023-03-28T19:42:49.523Z,101513.63
2023-03-28T19:45:19.220Z,101509.00
2023-03-28T19:47:51.901Z,101514.63
2023-03-28T19:50:22.005Z,101511.31
2023-03-28T19:52:51.640Z,101499.16
2023-03-28T19:55:21.217Z,101498.41
2023-03-28T19:57:50.801Z,101475.34
2023-03-28T20:00:21.540Z,101489.78
2023-03-28T20:02:54.134Z,101494.53
2023-03-28T20:05:23.754Z,101489.69
2023-03-28T20:07:53.259Z,101487.13
2023-03-28T20:10:22.737Z,101491.34
2023-03-28T20:12:52.217Z,101487.34
2023-03-28T20:15:21.736Z,101481.84
2023-03-28T20:17:53.869Z,101472.97
2023-03-28T20:20:24.092Z,101446.59
2023-03-28T20:22:53.809Z,101441.47
2023-03-28T20:25:24.355Z,101470.28
2023-03-28T20:27:54.073Z,101448.66
2023-03-28T20:30:23.572Z,101449.00
2023-03-28T20:32:55.837Z,101452.34
2023-03-28T20:35:26.830Z,101454.56
2023-03-28T20:37:57.117Z,101451.66
2023-03-28T20:40:26.771Z,101443.09
2023-03-28T20:42:57.568Z,101422.75
2023-03-28T20:45:27.176Z,101410.19
2023-03-28T20:48:06.455Z,101425.63
2023-03-28T20:50:37.713Z,101420.59
2023-03-28T20:53:08.242Z,101407.44
2023-03-28T20:55:37.934Z,101416.94
2023-03-28T20:58:08.833Z,101390.19
2023-03-28T21:00:39.903Z,101414.50
2023-03-28T21:03:15.885Z,101394.31
2023-03-28T21:05:46.833Z,101405.06
2023-03-28T21:08:19.719Z,101391.19
2023-03-28T21:10:54.784Z,101396.28
2023-03-28T21:13:24.301Z,101406.06
2023-03-28T21:15:53.802Z,101386.63
2023-03-28T21:18:26.258Z,101389.94
2023-03-28T21:20:56.420Z,101392.63
2023-03-28T21:23:26.166Z,101396.91
2023-03-28T21:25:55.675Z,101405.34
2023-03-28T21:28:25.162Z,101383.59
2023-03-28T21:31:01.718Z,101393.56
2023-03-28T21:33:33.960Z,101378.38
2023-03-28T21:36:04.418Z,101383.34
2023-03-28T21:38:33.973Z,101394.88
2023-03-28T21:41:03.720Z,101395.66
2023-03-28T21:43:33.382Z,101361.34
2023-03-28T21:46:02.978Z,101372.13
2023-03-28T21:48:35.086Z,101367.81
2023-03-28T21:51:04.887Z,101367.69
2023-03-28T21:53:36.300Z,101367.34
2023-03-28T21:56:06.846Z,101371.75
2023-03-28T21:58:36.839Z,101372.44
2023-03-28T22:01:06.958Z,101363.53
2023-03-28T22:03:40.862Z,101350.31
2023-03-28T22:06:11.587Z,101334.69
2023-03-28T22:08:41.213Z,101352.00
2023-03-28T22:11:14.807Z,101343.97
2023-03-28T22:13:45.171Z,101341.06
2023-03-28T22:16:15.689Z,101355.06
2023-03-28T22:18:50.485Z,101354.16
2023-03-28T22:21:20.187Z,101337.03
2023-03-28T22:23:49.901Z,101338.34
2023-03-28T22:26:20.114Z,101338.88
2023-03-28T22:28:49.981Z,101329.44
2023-03-28T22:31:19.586Z,101313.09
2023-03-28T22:33:51.874Z,101300.75
2023-03-28T22:36:23.684Z,101268.28
2023-03-28T22:38:54.902Z,101226.72
2023-03-28T22:41:32.114Z,101205.16
2023-03-28T22:44:01.701Z,101202.25
2023-03-28T22:46:31.372Z,101178.81
2023-03-28T22:49:04.663Z,101169.91
2023-03-28T22:51:34.540Z,101156.13
2023-03-28T22:54:06.204Z,101139.75
2023-03-28T22:56:35.724Z,101147.44
2023-03-28T22:59:05.199Z,101150.28
2023-03-28T23:01:35.395Z,101169.59
2023-03-28T23:04:07.941Z,101185.44
2023-03-28T23:06:39.238Z,101203.56
2023-03-28T23:09:08.901Z,101230.19
2023-03-28T23:11:38.698Z,101254.56
2023-03-28T23:14:08.335Z,101261.16
2023-03-28T23:16:38.634Z,101297.50
2023-03-28T23:19:11.101Z,101303.75
2023-03-28T23:21:41.721Z,101326.81
2023-03-28T23:24:12.020Z,101353.97
2023-03-28T23:26:41.683Z,101382.50
2023-03-28T23:29:11.337Z,101389.28
2023-03-28T23:31:41.091Z,101407.97
2023-03-28T23:34:13.203Z,101428.75
2023-03-28T23:36:42.982Z,101445.34
2023-03-28T23:39:13.487Z,101467.50
2023-03-28T23:41:43.466Z,101460.09
2023-03-28T23:44:12.989Z,101472.06
2023-03-28T23:46:45.068Z,101475.41
2023-03-28T23:49:17.170Z,101488.91
2023-03-28T23:51:46.969Z,101496.69
2023-03-28T23:54:18.170Z,101510.34
2023-03-28T23:56:49.276Z,101544.06
2023-03-28T23:59:19.234Z,101528.63
